Time;durP1;ratioP1;P1;durP2;ratioP2;P2;SDS_P1;SDS_P2;PMS_P1;PMS_P2;Temp;Humidity;BMP_temperature;BMP_pressure;BME280_temperature;BME280_humidity;BME280_pressure;Samples;Min_cycle;Max_cycle;Signal;HPM_P1;HPM_P2
2021/11/01 00:01:55;;;;;;;;;74.75;61.75;11.40;55.70;;;;;;5033899;28;8769;-64
2021/11/01 00:04:21;;;;;;;;;73.50;60.50;11.40;55.40;;;;;;5035877;28;8974;-63
2021/11/01 00:06:46;;;;;;;;;72.75;60.00;11.10;56.10;;;;;;5053764;28;8771;-63
2021/11/01 00:09:12;;;;;;;;;78.25;65.25;11.10;56.50;;;;;;5053749;28;8775;-64
2021/11/01 00:11:38;;;;;;;;;89.50;80.00;10.70;57.40;;;;;;5053573;28;8779;-64
2021/11/01 00:14:04;;;;;;;;;90.75;85.25;10.60;58.20;;;;;;5053710;28;8771;-62
2021/11/01 00:16:30;;;;;;;;;86.75;78.50;10.60;57.60;;;;;;5053984;28;8767;-62
2021/11/01 00:18:56;;;;;;;;;89.50;84.75;10.60;57.50;;;;;;5053658;28;8795;-62
2021/11/01 00:21:24;;;;;;;;;82.75;70.25;10.60;57.70;;;;;;5053220;28;8759;-62
2021/11/01 00:23:50;;;;;;;;;81.50;70.25;10.60;58.60;;;;;;5047459;28;8805;-61
2021/11/01 00:26:17;;;;;;;;;70.75;58.25;10.80;56.90;;;;;;5040029;28;8798;-61
2021/11/01 00:28:44;;;;;;;;;76.00;62.25;11.00;56.20;;;;;;5033693;28;8800;-62
2021/11/01 00:31:14;;;;;;;;;82.00;70.50;11.00;56.00;;;;;;5037079;28;9493;-62
2021/11/01 00:33:40;;;;;;;;;84.00;73.25;11.00;56.00;;;;;;5037178;28;8816;-62
2021/11/01 00:36:06;;;;;;;;;88.75;78.75;10.70;57.00;;;;;;5037177;28;8774;-62
2021/11/01 00:38:32;;;;;;;;;103.25;98.50;10.30;58.30;;;;;;5037406;28;9143;-61
2021/11/01 00:40:58;;;;;;;;;131.25;125.00;10.40;58.30;;;;;;5037118;28;8820;-61
2021/11/01 00:43:25;;;;;;;;;134.25;129.50;10.60;57.00;;;;;;5037308;28;8773;-61
2021/11/01 00:45:51;;;;;;;;;124.00;123.50;10.50;56.90;;;;;;5036914;28;8777;-61
2021/11/01 00:48:17;;;;;;;;;137.50;133.00;10.50;57.00;;;;;;5036967;28;8816;-63
2021/11/01 00:50:44;;;;;;;;;145.75;136.25;10.50;57.20;;;;;;5036721;28;8773;-61
2021/11/01 00:53:11;;;;;;;;;126.50;122.50;10.40;57.70;;;;;;5037314;28;8849;-61
2021/11/01 00:55:48;;;;;;;;;112.00;109.50;10.40;57.40;;;;;;5056933;28;8803;-61
2021/11/01 00:58:16;;;;;;;;;135.25;131.00;10.40;57.70;;;;;;5057208;28;9444;-61
2021/11/01 01:00:42;;;;;;;;;158.25;146.25;10.30;57.90;;;;;;5056792;28;8785;-61
2021/11/01 01:03:13;;;;;;;;;159.50;148.25;9.90;58.90;;;;;;5056998;28;9420;-61
2021/11/01 01:05:42;;;;;;;;;145.75;139.00;10.00;58.80;;;;;;5056794;28;9460;-61
2021/11/01 01:08:08;;;;;;;;;153.50;143.25;9.90;59.30;;;;;;5056855;28;9514;-61
2021/11/01 01:10:34;;;;;;;;;162.75;156.25;10.10;58.70;;;;;;5056759;28;8771;-62
2021/11/01 01:13:00;;;;;;;;;141.75;134.00;9.90;58.70;;;;;;5056453;28;8901;-62
2021/11/01 01:15:28;;;;;;;;;134.00;128.75;10.10;58.50;;;;;;5056591;28;8768;-62
2021/11/01 01:18:01;;;;;;;;;139.25;132.25;10.00;58.40;;;;;;5056417;28;8847;-62
2021/11/01 01:20:27;;;;;;;;;156.75;150.75;10.00;59.10;;;;;;5056370;28;8775;-62
2021/11/01 01:22:52;;;;;;;;;159.00;152.50;10.00;57.70;;;;;;5056448;28;8842;-62
2021/11/01 01:27:51;;;;;;;;;151.75;146.75;10.20;57.00;;;;;;5056308;28;8763;-61
2021/11/01 01:30:17;;;;;;;;;164.75;154.75;10.20;57.20;;;;;;5055129;28;8787;-62
2021/11/01 01:32:44;;;;;;;;;170.00;163.50;10.20;56.90;;;;;;5056076;28;8790;-62
2021/11/01 01:35:12;;;;;;;;;166.50;160.25;10.10;56.70;;;;;;5056063;28;8763;-62
2021/11/01 01:37:38;;;;;;;;;180.25;165.75;9.70;58.20;;;;;;5056056;28;8751;-62
2021/11/01 01:40:09;;;;;;;;;173.00;167.00;9.50;59.10;;;;;;5056118;28;8868;-62
2021/11/01 01:42:36;;;;;;;;;178.25;168.25;9.50;59.40;;;;;;5056232;28;8792;-62
2021/11/01 01:45:03;;;;;;;;;173.75;164.50;9.70;58.50;;;;;;5056231;28;8759;-62
2021/11/01 01:47:29;;;;;;;;;180.75;158.00;9.80;58.00;;;;;;5056086;28;8747;-62
2021/11/01 01:49:55;;;;;;;;;192.75;182.75;9.70;57.90;;;;;;5055703;28;8787;-62
2021/11/01 01:52:21;;;;;;;;;178.00;167.50;9.90;57.40;;;;;;5056015;28;8815;-61
2021/11/01 01:54:47;;;;;;;;;150.00;149.50;9.90;57.50;;;;;;5055970;28;8771;-61
2021/11/01 01:57:13;;;;;;;;;162.75;156.75;9.90;57.70;;;;;;5055540;28;8831;-62
2021/11/01 01:59:39;;;;;;;;;142.75;138.00;9.70;58.20;;;;;;5054080;28;8767;-62
2021/11/01 02:02:05;;;;;;;;;136.50;134.25;9.50;58.60;;;;;;5055519;28;8778;-61
2021/11/01 02:04:33;;;;;;;;;141.75;125.25;9.40;59.00;;;;;;5055690;28;8775;-61
2021/11/01 02:07:22;;;;;;;;;159.50;145.25;9.00;60.80;;;;;;5055426;28;8779;-61
2021/11/01 02:10:02;;;;;;;;;176.50;167.50;9.20;60.10;;;;;;5055694;28;8771;-62
2021/11/01 02:12:46;;;;;;;;;189.25;177.00;9.10;60.10;;;;;;5055498;28;8830;-61
2021/11/01 02:15:15;;;;;;;;;174.00;167.50;9.20;59.50;;;;;;5055246;28;8759;-61
2021/11/01 02:17:42;;;;;;;;;191.50;179.50;9.30;58.90;;;;;;5055148;28;8748;-61
2021/11/01 02:20:18;;;;;;;;;196.25;190.75;9.10;59.50;;;;;;5055186;28;8871;-61
2021/11/01 02:23:09;;;;;;;;;164.00;158.75;9.10;59.30;;;;;;5054927;28;8936;-61
2021/11/01 02:25:41;;;;;;;;;125.50;121.25;9.20;59.90;;;;;;5055181;28;8778;-62
2021/11/01 02:28:15;;;;;;;;;97.25;92.75;9.30;59.90;;;;;;5055218;28;8774;-62
2021/11/01 02:30:44;;;;;;;;;130.50;129.00;9.10;60.70;;;;;;5055007;28;8789;-62
2021/11/01 02:33:12;;;;;;;;;144.00;141.00;9.20;60.10;;;;;;5054872;28;8921;-62
2021/11/01 02:35:38;;;;;;;;;152.25;141.25;9.20;60.10;;;;;;5054856;28;8781;-62
2021/11/01 02:38:05;;;;;;;;;158.75;146.75;9.40;59.20;;;;;;5055116;28;9487;-61
2021/11/01 02:40:33;;;;;;;;;150.75;144.25;9.50;57.80;;;;;;5055103;28;8913;-62
2021/11/01 02:42:59;;;;;;;;;151.50;147.25;9.40;57.60;;;;;;5054790;28;8775;-61
2021/11/01 02:45:27;;;;;;;;;157.00;149.50;9.40;57.70;;;;;;5054929;28;9540;-62
2021/11/01 02:47:53;;;;;;;;;152.50;140.50;9.30;57.80;;;;;;5054587;28;8803;-62
2021/11/01 02:50:20;;;;;;;;;135.50;130.75;9.00;58.50;;;;;;5054804;28;8875;-63
2021/11/01 02:52:46;;;;;;;;;151.25;140.50;8.80;59.80;;;;;;5054500;28;9481;-61
2021/11/01 02:55:14;;;;;;;;;150.50;144.00;8.80;59.60;;;;;;5054674;28;8786;-61
2021/11/01 02:57:42;;;;;;;;;148.25;140.75;8.90;59.80;;;;;;5054806;28;8775;-61
2021/11/01 03:00:10;;;;;;;;;144.50;141.00;9.10;58.90;;;;;;5054414;28;8774;-61
2021/11/01 03:02:36;;;;;;;;;148.50;140.00;9.10;58.10;;;;;;5054397;28;8790;-61
2021/11/01 03:05:14;;;;;;;;;147.50;141.75;9.00;58.50;;;;;;5054344;28;8783;-63
2021/11/01 03:07:41;;;;;;;;;162.25;153.75;8.80;58.80;;;;;;5054675;28;8767;-63
2021/11/01 03:10:08;;;;;;;;;153.75;149.25;8.60;59.10;;;;;;5054550;28;8783;-61
2021/11/01 03:12:37;;;;;;;;;174.00;167.50;8.70;58.90;;;;;;5054231;28;8799;-62
2021/11/01 03:15:06;;;;;;;;;152.00;146.75;8.70;58.50;;;;;;5054231;28;8797;-61
2021/11/01 03:17:43;;;;;;;;;161.75;146.75;8.90;58.40;;;;;;5053127;28;8779;-62
2021/11/01 03:20:20;;;;;;;;;163.25;159.75;8.80;58.40;;;;;;5054441;28;8775;-62
2021/11/01 03:22:53;;;;;;;;;170.00;158.00;8.20;60.40;;;;;;5052913;28;8858;-62
2021/11/01 03:25:26;;;;;;;;;176.00;165.25;8.20;61.20;;;;;;5054191;28;8782;-62
2021/11/01 03:27:53;;;;;;;;;164.75;159.25;8.30;60.60;;;;;;5053104;28;9591;-62
2021/11/01 03:30:21;;;;;;;;;180.00;167.75;8.30;61.10;;;;;;5054199;28;8854;-62
2021/11/01 03:32:48;;;;;;;;;158.50;154.50;8.00;62.20;;;;;;5054281;28;9575;-62
2021/11/01 03:35:16;;;;;;;;;154.25;147.75;7.90;63.00;;;;;;5054074;28;8779;-63
2021/11/01 03:37:45;;;;;;;;;138.00;130.50;8.00;62.60;;;;;;5053803;28;8794;-63
2021/11/01 03:40:17;;;;;;;;;138.00;133.50;7.90;63.30;;;;;;5053791;28;8844;-63
2021/11/01 03:42:43;;;;;;;;;123.50;119.75;8.10;63.10;;;;;;5054044;28;8832;-63
2021/11/01 03:45:11;;;;;;;;;93.25;87.00;8.30;62.40;;;;;;5053993;28;8775;-63
2021/11/01 03:47:41;;;;;;;;;102.00;97.50;8.50;63.00;;;;;;5054223;28;9437;-62
2021/11/01 03:52:50;;;;;;;;;119.75;114.75;8.00;64.00;;;;;;5054369;28;8815;-63
2021/11/01 03:55:18;;;;;;;;;107.25;102.75;8.20;63.50;;;;;;5054131;28;8790;-63
2021/11/01 03:57:45;;;;;;;;;92.50;85.75;8.10;63.80;;;;;;5053997;28;8786;-62
2021/11/01 04:00:12;;;;;;;;;103.00;101.75;8.10;63.70;;;;;;5054073;28;8743;-63
2021/11/01 04:02:38;;;;;;;;;95.75;88.75;8.10;63.30;;;;;;5053779;28;8783;-62
2021/11/01 04:05:05;;;;;;;;;97.25;94.00;7.90;63.70;;;;;;5055541;28;8841;-62
2021/11/01 04:07:32;;;;;;;;;97.25;91.50;7.80;64.20;;;;;;5057652;28;8779;-63
2021/11/01 04:09:59;;;;;;;;;90.75;81.00;7.80;64.60;;;;;;5057663;28;8791;-62
2021/11/01 04:12:25;;;;;;;;;92.50;84.00;8.10;63.50;;;;;;5057902;28;8806;-62
2021/11/01 04:14:56;;;;;;;;;96.50;91.75;8.10;63.40;;;;;;5057600;28;9417;-63
2021/11/01 04:22:41;;;;;;;;;94.25;90.50;7.80;63.70;;;;;;4995623;28;9461;-63
2021/11/01 04:25:08;;;;;;;;;100.00;97.25;7.90;63.40;;;;;;4996001;28;8801;-62
2021/11/01 04:27:35;;;;;;;;;94.25;88.50;7.80;63.20;;;;;;4995792;28;8786;-62
2021/11/01 04:30:03;;;;;;;;;89.00;81.50;7.70;63.60;;;;;;4995915;28;8805;-62
2021/11/01 04:35:02;;;;;;;;;88.25;74.75;7.40;64.40;;;;;;4995884;28;8751;-62
2021/11/01 04:37:29;;;;;;;;;82.75;70.25;7.30;64.40;;;;;;4995745;28;8795;-62
2021/11/01 04:53:07;;;;;;;;;97.25;94.00;6.90;65.20;;;;;;4995302;28;9461;-62
2021/11/01 04:55:34;;;;;;;;;104.00;101.25;6.80;65.70;;;;;;4995468;28;8771;-62
2021/11/01 04:58:01;;;;;;;;;99.25;96.50;7.10;64.70;;;;;;4995457;28;8794;-63
2021/11/01 05:00:27;;;;;;;;;92.25;80.75;7.00;64.70;;;;;;5050793;28;9123;-63
2021/11/01 05:03:01;;;;;;;;;89.75;79.75;6.80;65.50;;;;;;5056634;28;8857;-63
2021/11/01 05:05:27;;;;;;;;;94.75;84.25;6.80;65.80;;;;;;5056635;28;8794;-63
2021/11/01 05:07:54;;;;;;;;;95.75;87.25;6.90;65.50;;;;;;5056829;28;8844;-63
2021/11/01 05:10:27;;;;;;;;;93.50;80.75;6.70;66.00;;;;;;5056519;28;8775;-63
2021/11/01 05:12:53;;;;;;;;;90.25;78.75;6.30;67.50;;;;;;5056436;28;8810;-63
2021/11/01 05:15:35;;;;;;;;;92.50;82.75;6.30;67.50;;;;;;5056049;28;8832;-63
2021/11/01 05:18:15;;;;;;;;;90.75;81.75;6.10;68.20;;;;;;5056392;28;8806;-63
2021/11/01 05:20:50;;;;;;;;;92.25;81.50;6.30;67.90;;;;;;5056573;28;8758;-64
2021/11/01 05:25:53;;;;;;;;;96.50;87.50;6.90;65.80;;;;;;5056301;28;8763;-63
2021/11/01 05:35:45;;;;;;;;;126.25;117.25;7.50;63.70;;;;;;5037132;28;8869;-65
2021/11/01 05:38:11;;;;;;;;;126.25;122.00;7.40;63.20;;;;;;5036194;28;8796;-65
2021/11/01 05:40:37;;;;;;;;;111.25;109.75;7.50;62.70;;;;;;5053035;28;8795;-65
2021/11/01 05:43:03;;;;;;;;;116.25;111.75;7.50;62.50;;;;;;5055847;28;8763;-64
2021/11/01 05:45:29;;;;;;;;;107.25;102.75;7.20;63.00;;;;;;5055771;28;8839;-65
2021/11/01 05:48:00;;;;;;;;;101.00;96.25;7.20;63.60;;;;;;5055693;28;8870;-69
2021/11/01 05:50:29;;;;;;;;;101.25;99.75;7.50;62.70;;;;;;5050287;28;8801;-69
2021/11/01 05:52:57;;;;;;;;;100.00;93.25;7.70;62.10;;;;;;5035935;28;9484;-69
2021/11/01 05:55:33;;;;;;;;;98.75;92.50;7.90;61.70;;;;;;5035649;28;8777;-69
2021/11/01 06:03:33;;;;;;;;;106.50;104.75;8.10;61.00;;;;;;5052770;28;8763;-68
2021/11/01 06:14:00;;;;;;;;;129.75;127.75;7.50;63.10;;;;;;5014015;28;8963;-65
2021/11/01 06:16:27;;;;;;;;;123.75;119.00;7.50;63.60;;;;;;5054110;28;8787;-66
2021/11/01 06:18:53;;;;;;;;;96.00;84.25;7.40;64.20;;;;;;5051373;28;8763;-66
2021/11/01 06:21:20;;;;;;;;;108.25;107.50;7.50;64.80;;;;;;5046968;28;8818;-66
2021/11/01 06:23:51;;;;;;;;;122.00;120.00;7.70;64.60;;;;;;5043521;28;8906;-65
2021/11/01 06:26:19;;;;;;;;;115.75;111.75;7.80;64.30;;;;;;5051407;28;8836;-65
2021/11/01 06:28:49;;;;;;;;;116.75;113.50;7.70;64.40;;;;;;5050558;28;8771;-65
2021/11/01 06:31:24;;;;;;;;;114.50;111.75;7.70;64.90;;;;;;5051310;28;8804;-65
2021/11/01 06:39:43;;;;;;;;;96.75;91.50;8.00;65.00;;;;;;5052967;28;8751;-64
2021/11/01 06:44:48;;;;;;;;;95.50;88.50;7.50;66.70;;;;;;5054769;28;9491;-65
2021/11/01 06:50:28;;;;;;;;;91.75;81.75;7.50;67.30;;;;;;5046042;28;8771;-65
2021/11/01 06:55:27;;;;;;;;;89.75;81.00;7.70;67.40;;;;;;5042811;28;8766;-65
2021/11/01 06:58:38;;;;;;;;;92.50;85.50;7.80;66.80;;;;;;5045258;28;8747;-65
2021/11/01 07:14:32;;;;;;;;;98.50;94.00;7.80;67.40;;;;;;5054396;28;8905;-65
2021/11/01 07:17:05;;;;;;;;;103.75;100.00;7.90;67.80;;;;;;5054528;28;8775;-65
2021/11/01 08:24:40;;;;;;;;;93.75;88.75;10.10;65.50;;;;;;5057786;28;8759;-66
2021/11/01 08:29:57;;;;;;;;;87.25;82.00;10.20;65.80;;;;;;5057298;28;8763;-66
2021/11/01 08:38:42;;;;;;;;;87.00;82.75;10.50;65.80;;;;;;5052469;28;8759;-65
2021/11/01 09:04:10;;;;;;;;;91.25;90.25;11.90;63.10;;;;;;5048168;28;8799;-65
2021/11/01 09:28:12;;;;;;;;;83.50;82.25;12.90;60.80;;;;;;5037150;28;8769;-65
2021/11/01 09:36:13;;;;;;;;;77.25;67.00;13.50;59.70;;;;;;5042461;28;8770;-65
2021/11/01 09:41:24;;;;;;;;;79.00;73.00;14.20;57.70;;;;;;5041663;28;8777;-66
2021/11/01 09:43:59;;;;;;;;;81.50;73.00;14.20;57.00;;;;;;5044080;28;8885;-65
2021/11/01 09:46:28;;;;;;;;;74.25;65.25;14.40;56.70;;;;;;5045522;28;9472;-66
2021/11/01 09:51:32;;;;;;;;;77.75;70.75;14.70;56.90;;;;;;5046796;28;8803;-66
2021/11/01 09:53:59;;;;;;;;;76.50;65.50;15.30;55.40;;;;;;5055266;28;8833;-66
2021/11/01 09:59:12;;;;;;;;;75.00;68.50;16.10;53.70;;;;;;5055653;28;8783;-67
2021/11/01 10:01:48;;;;;;;;;75.00;68.00;17.00;53.10;;;;;;5053330;28;9027;-66
2021/11/01 10:04:23;;;;;;;;;74.75;62.50;18.20;49.00;;;;;;5043412;28;8809;-66
2021/11/01 10:07:35;;;;;;;;;70.25;60.25;22.40;41.70;;;;;;5041228;28;8773;-67
2021/11/01 10:09:41;;;;;;;;;69.75;57.00;25.60;36.00;;;;;;5029940;28;8794;-66
2021/11/01 10:12:35;;;;;;;;;59.50;49.25;27.70;31.60;;;;;;5035163;28;8796;-67
2021/11/01 10:18:11;;;;;;;;;57.00;47.00;29.40;28.90;;;;;;5043850;28;8810;-67
2021/11/01 10:20:52;;;;;;;;;58.00;48.25;31.50;26.70;;;;;;5048023;28;8803;-67
2021/11/01 10:23:23;;;;;;;;;18.00;18.00;32.00;25.80;;;;;;5055065;28;8896;-67
2021/11/01 10:26:04;;;;;;;;;56.33;47.33;32.20;24.50;;;;;;5055298;28;9555;-67
2021/11/01 10:28:31;;;;;;;;;59.50;49.75;32.10;25.50;;;;;;5042507;28;8781;-67
2021/11/01 10:31:08;;;;;;;;;58.75;49.00;32.00;24.80;;;;;;5046974;28;8904;-67
2021/11/01 10:33:36;;;;;;;;;58.50;49.00;31.70;25.10;;;;;;5045937;28;8799;-67
2021/11/01 10:36:02;;;;;;;;;52.00;43.75;32.00;25.20;;;;;;5034996;28;8812;-67
2021/11/01 10:38:34;;;;;;;;;51.00;43.00;33.50;23.80;;;;;;5037571;28;8785;-67
2021/11/01 10:41:17;;;;;;;;;54.00;45.25;34.80;22.80;;;;;;5044071;28;8837;-67
2021/11/01 10:44:08;;;;;;;;;52.50;44.00;37.10;21.20;;;;;;5035004;28;8905;-67
2021/11/01 11:14:41;;;;;;;;;55.75;46.75;39.30;18.90;;;;;;5005565;28;9584;-67
2021/11/01 11:19:50;;;;;;;;;57.50;47.50;36.30;20.40;;;;;;5048409;28;9665;-68
2021/11/01 11:22:28;;;;;;;;;57.25;47.00;37.10;20.10;;;;;;5050790;28;8856;-67
2021/11/01 11:25:30;;;;;;;;;53.50;45.25;37.20;19.60;;;;;;5043489;28;9525;-70
2021/11/01 11:50:26;;;;;;;;;60.00;49.25;42.80;15.80;;;;;;5053780;28;8755;-66
2021/11/01 11:52:52;;;;;;;;;50.67;42.33;41.20;16.80;;;;;;5053993;28;8835;-66
2021/11/01 11:55:25;;;;;;;;;49.67;41.67;39.80;17.20;;;;;;5054122;28;8916;-66
2021/11/01 11:58:00;;;;;;;;;51.50;43.25;41.00;16.70;;;;;;5053987;28;8755;-66
2021/11/01 12:00:28;;;;;;;;;52.00;44.00;41.90;15.90;;;;;;5053962;28;8775;-67
2021/11/01 12:02:56;;;;;;;;;49.33;40.67;39.30;17.10;;;;;;5053806;28;8786;-66
2021/11/01 12:06:07;;;;;;;;;46.33;39.33;38.40;17.70;;;;;;5054069;28;8771;-67
2021/11/01 12:08:37;;;;;;;;;51.75;43.00;39.50;17.20;;;;;;5053485;28;8783;-66
2021/11/01 12:19:17;;;;;;;;;44.67;38.67;39.00;17.20;;;;;;5053885;28;8771;-67
2021/11/01 12:21:45;;;;;;;;;49.00;41.00;40.60;16.20;;;;;;5053480;28;8830;-67
2021/11/01 12:24:21;;;;;;;;;48.00;40.67;38.60;18.00;;;;;;5053665;28;8975;-66
2021/11/01 12:26:58;;;;;;;;;46.00;39.00;37.90;17.30;;;;;;5056369;28;8818;-66
2021/11/01 12:29:24;;;;;;;;;47.33;40.67;38.90;16.70;;;;;;5057340;28;8798;-67
2021/11/01 12:32:07;;;;;;;;;52.00;43.00;40.30;16.00;;;;;;5057274;28;8778;-67
2021/11/01 12:34:45;;;;;;;;;55.75;45.75;41.50;15.40;;;;;;5050418;28;8779;-66
2021/11/01 12:37:28;;;;;;;;;58.50;48.00;41.50;15.30;;;;;;5055053;28;8771;-66
2021/11/01 12:43:51;;;;;;;;;52.67;43.67;40.10;15.80;;;;;;5052389;28;8792;-66
2021/11/01 12:57:20;;;;;;;;;47.67;40.00;40.40;15.40;;;;;;5054055;28;8799;-64
2021/11/01 12:59:48;;;;;;;;;51.00;42.33;38.80;16.10;;;;;;5048272;28;8811;-59
2021/11/01 13:02:37;;;;;;;;;58.50;48.75;38.10;16.80;;;;;;5054359;28;8788;-75
2021/11/01 13:05:07;;;;;;;;;55.00;45.33;38.30;16.50;;;;;;5034597;28;8766;-65
2021/11/01 13:07:46;;;;;;;;;49.33;41.00;38.30;16.40;;;;;;5040470;28;8786;-73
2021/11/01 13:10:42;;;;;;;;;52.00;43.67;37.90;16.80;;;;;;5041201;28;8805;-73
2021/11/01 13:18:14;;;;;;;;;53.33;44.33;37.20;17.00;;;;;;5043451;28;8762;-71
2021/11/01 13:20:46;;;;;;;;;52.67;45.00;37.50;16.80;;;;;;5047375;28;8814;-73
2021/11/01 13:23:13;;;;;;;;;46.67;40.33;37.10;17.00;;;;;;5044973;28;8950;-70
2021/11/01 13:35:00;;;;;;;;;48.67;41.67;35.20;18.00;;;;;;5052048;28;9444;-70
2021/11/01 13:37:29;;;;;;;;;46.00;39.00;34.30;19.00;;;;;;5040813;28;8815;-69
2021/11/01 13:40:06;;;;;;;;;45.67;39.00;34.90;18.50;;;;;;5046745;28;8805;-65
2021/11/01 13:42:32;;;;;;;;;48.33;41.00;35.40;18.00;;;;;;5039280;28;8802;-69
2021/11/01 13:45:25;;;;;;;;;45.67;39.67;34.90;18.60;;;;;;5046330;28;8783;-67
2021/11/01 13:47:53;;;;;;;;;49.00;42.00;35.10;18.20;;;;;;5053189;28;8874;-68
2021/11/01 13:50:22;;;;;;;;;45.33;39.00;34.90;18.40;;;;;;5055483;28;8856;-64
2021/11/01 13:53:13;;;;;;;;;50.33;42.67;35.20;17.90;;;;;;5055949;28;8835;-68
2021/11/01 14:01:07;;;;;;;;;51.33;44.00;32.20;20.20;;;;;;5043799;28;8782;-70
2021/11/01 14:36:29;;;;;;;;;61.50;50.50;22.20;31.80;;;;;;4992106;28;8802;-59
2021/11/01 15:04:26;;;;;;;;;67.25;54.50;20.50;36.70;;;;;;4992709;28;8778;-63
2021/11/01 15:09:55;;;;;;;;;65.00;52.25;20.00;38.60;;;;;;5054458;28;8771;-62
2021/11/01 15:15:00;;;;;;;;;72.25;58.50;19.90;37.70;;;;;;5053695;28;8869;-63
2021/11/01 15:32:52;;;;;;;;;68.75;56.50;19.40;39.00;;;;;;5054111;28;9409;-64
2021/11/01 15:38:14;;;;;;;;;69.25;57.75;19.20;38.40;;;;;;5054283;28;9423;-64
2021/11/01 16:19:06;;;;;;;;;189.50;187.50;17.90;42.20;;;;;;5041404;28;8860;-66
2021/11/01 16:21:33;;;;;;;;;209.00;197.75;17.70;42.80;;;;;;5057501;28;9571;-65
2021/11/01 16:23:59;;;;;;;;;207.50;200.00;17.70;42.90;;;;;;5052926;28;8803;-63
2021/11/01 16:26:29;;;;;;;;;191.00;181.75;17.80;42.60;;;;;;5047102;28;9172;-60
2021/11/01 16:29:13;;;;;;;;;203.75;190.50;17.70;42.80;;;;;;5045776;28;8809;-60
2021/11/01 16:31:46;;;;;;;;;178.25;172.00;17.60;42.90;;;;;;5042796;28;9540;-63
2021/11/01 16:39:23;;;;;;;;;172.50;165.50;17.50;42.90;;;;;;5046778;28;8743;-69
2021/11/01 16:41:49;;;;;;;;;183.00;175.75;17.40;43.10;;;;;;5057118;28;8844;-61
2021/11/01 16:44:31;;;;;;;;;186.00;179.75;17.50;43.40;;;;;;5057032;28;8787;-63
2021/11/01 16:46:57;;;;;;;;;189.00;177.50;17.40;43.70;;;;;;5050836;28;8818;-61
2021/11/01 16:49:27;;;;;;;;;182.50;174.00;17.20;43.80;;;;;;5044709;28;8789;-62
2021/11/01 16:51:54;;;;;;;;;181.25;179.00;17.20;43.60;;;;;;5037291;28;8814;-64
2021/11/01 16:54:27;;;;;;;;;177.00;168.75;17.30;43.60;;;;;;5039345;28;9475;-63
2021/11/01 17:05:00;;;;;;;;;137.50;133.50;17.00;44.10;;;;;;5056805;28;9427;-65
2021/11/01 17:21:26;;;;;;;;;87.50;85.25;16.80;44.50;;;;;;5045232;28;8779;-63
2021/11/01 17:24:10;;;;;;;;;85.75;84.75;16.60;45.10;;;;;;5029835;28;8779;-63
2021/11/01 18:39:28;;;;;;;;;148.75;143.25;15.10;48.50;;;;;;5043039;28;9511;-68
2021/11/01 18:42:10;;;;;;;;;133.25;125.25;15.20;47.90;;;;;;5048860;28;9471;-67
2021/11/01 18:45:00;;;;;;;;;130.25;128.25;15.20;48.10;;;;;;5043100;28;9411;-64
2021/11/01 18:53:04;;;;;;;;;163.75;157.50;15.10;48.60;;;;;;5049204;28;8811;-64
2021/11/01 18:55:32;;;;;;;;;165.50;160.50;15.40;47.70;;;;;;5050403;28;8789;-66
2021/11/01 18:57:58;;;;;;;;;174.00;168.50;15.50;47.10;;;;;;5053623;28;8791;-64
2021/11/01 19:00:26;;;;;;;;;169.00;155.75;15.30;47.40;;;;;;5053254;28;8756;-64
2021/11/01 19:02:54;;;;;;;;;147.75;144.50;15.20;47.50;;;;;;5051635;28;8779;-63
2021/11/01 19:05:39;;;;;;;;;150.25;142.75;15.10;47.80;;;;;;5053133;28;8774;-64
2021/11/01 19:08:32;;;;;;;;;152.50;142.00;15.30;47.40;;;;;;5047909;28;8775;-64
2021/11/01 20:09:27;;;;;;;;;121.50;117.50;14.30;50.60;;;;;;5023357;28;8877;-69
2021/11/01 20:14:59;;;;;;;;;124.75;118.50;13.60;52.90;;;;;;5026904;28;8801;-70
2021/11/01 21:27:05;;;;;;;;;97.50;95.25;13.30;54.60;;;;;;5051937;28;8751;-71
2021/11/01 21:29:34;;;;;;;;;93.00;92.00;13.50;54.30;;;;;;5055378;28;8771;-70
2021/11/01 21:32:01;;;;;;;;;89.75;86.50;13.60;53.70;;;;;;5055970;28;8779;-70
2021/11/01 21:34:33;;;;;;;;;96.25;96.00;13.50;54.30;;;;;;5050715;28;8833;-71
2021/11/01 21:36:59;;;;;;;;;90.25;90.25;13.40;54.20;;;;;;5036094;28;8858;-70
2021/11/01 21:39:25;;;;;;;;;98.25;94.00;13.40;54.20;;;;;;5034626;28;8769;-69
2021/11/01 21:41:52;;;;;;;;;98.75;96.75;13.10;55.00;;;;;;5036234;28;8796;-70
2021/11/01 21:44:19;;;;;;;;;90.25;88.00;13.00;55.80;;;;;;5036176;28;8770;-69
2021/11/01 21:46:45;;;;;;;;;87.50;80.75;13.00;56.20;;;;;;5036474;28;8800;-69
2021/11/01 21:49:11;;;;;;;;;94.00;92.25;13.20;55.20;;;;;;5036055;28;8839;-72
2021/11/01 21:51:38;;;;;;;;;85.00;83.75;13.40;54.80;;;;;;5036222;28;8793;-71
2021/11/01 21:54:29;;;;;;;;;87.00;82.00;13.50;54.00;;;;;;5036838;28;8828;-71
2021/11/01 21:57:20;;;;;;;;;83.00;78.00;13.50;54.00;;;;;;5035951;28;8786;-70
2021/11/01 22:16:38;;;;;;;;;89.00;88.00;13.40;54.10;;;;;;5035740;28;8766;-71
2021/11/01 22:21:16;;;;;;;;;84.75;78.25;13.40;54.20;;;;;;5034424;28;8848;-70
2021/11/01 22:24:27;;;;;;;;;88.50;86.00;13.20;54.70;;;;;;5035377;28;9550;-70
2021/11/01 22:47:22;;;;;;;;;82.00;70.25;12.50;57.80;;;;;;5034877;28;8786;-70
2021/11/01 22:55:39;;;;;;;;;84.00;71.50;12.40;57.40;;;;;;5034807;28;8781;-70
2021/11/01 22:58:05;;;;;;;;;77.25;64.25;12.60;56.60;;;;;;5034772;28;8802;-70
2021/11/01 23:00:37;;;;;;;;;79.25;64.50;12.70;56.50;;;;;;5034819;28;8766;-70
2021/11/01 23:03:13;;;;;;;;;82.25;71.25;12.90;55.80;;;;;;5034695;28;8753;-70
2021/11/01 23:32:47;;;;;;;;;79.50;71.25;12.60;56.60;;;;;;5034343;28;8770;-71
2021/11/01 23:35:13;;;;;;;;;80.25;69.25;12.40;57.00;;;;;;5034310;28;8784;-69
2021/11/01 23:37:39;;;;;;;;;78.50;66.00;12.30;57.40;;;;;;5034301;28;8812;-71
2021/11/01 23:40:05;;;;;;;;;78.00;67.00;12.50;57.10;;;;;;5034440;28;8774;-71
2021/11/01 23:42:31;;;;;;;;;74.25;63.00;12.70;55.70;;;;;;5034235;28;8773;-70
2021/11/01 23:44:57;;;;;;;;;77.00;68.50;12.80;55.20;;;;;;5049879;28;9234;-72
2021/11/01 23:47:24;;;;;;;;;75.25;61.75;12.60;55.70;;;;;;5034232;28;8781;-72
2021/11/01 23:49:49;;;;;;;;;79.25;63.25;12.60;56.00;;;;;;5049778;28;8777;-71
2021/11/01 23:52:16;;;;;;;;;75.75;62.50;12.80;55.30;;;;;;5034455;28;8786;-72
2021/11/01 23:54:43;;;;;;;;;75.75;63.25;13.00;54.50;;;;;;5034366;28;9447;-72
2021/11/01 23:57:14;;;;;;;;;74.75;64.00;12.80;54.70;;;;;;5034375;28;8770;-71
2021/11/01 23:59:41;;;;;;;;;76.00;63.25;12.90;54.80;;;;;;5034125;28;8792;-71
